createdAt,value
2023-03-26T00:00:11.864Z,8.01
2023-03-26T00:04:13.045Z,8.19
2023-03-26T00:08:13.994Z,8.07
2023-03-26T00:12:14.938Z,7.85
2023-03-26T00:16:16.092Z,7.92
2023-03-26T00:20:17.085Z,7.64
2023-03-26T00:24:18.272Z,7.74
2023-03-26T00:28:19.395Z,7.82
2023-03-26T00:32:20.508Z,7.78
2023-03-26T00:36:21.707Z,7.64
2023-03-26T00:40:22.781Z,7.60
2023-03-26T00:44:24.016Z,7.56
2023-03-26T00:48:34.490Z,7.33
2023-03-26T00:52:27.345Z,7.21
2023-03-26T00:56:27.328Z,7.35
2023-03-26T01:00:28.333Z,7.32
2023-03-26T01:04:29.461Z,7.38
2023-03-26T01:08:30.520Z,7.61
2023-03-26T01:12:31.556Z,7.59
2023-03-26T01:16:32.717Z,7.42
2023-03-26T01:20:33.855Z,7.30
2023-03-26T01:24:35.121Z,7.09
2023-03-26T01:28:36.451Z,7.09
2023-03-26T01:32:37.639Z,7.20
2023-03-26T01:36:38.723Z,6.92
2023-03-26T01:40:39.803Z,6.97
2023-03-26T01:44:40.941Z,7.16
2023-03-26T01:48:42.166Z,6.83
2023-03-26T01:52:43.409Z,6.56
2023-03-26T01:56:44.576Z,6.63
2023-03-26T02:00:45.725Z,6.87
2023-03-26T02:04:46.872Z,6.75
2023-03-26T02:08:48.027Z,6.36
2023-03-26T02:12:49.168Z,6.42
2023-03-26T02:16:50.345Z,6.53
2023-03-26T02:20:51.556Z,6.70
2023-03-26T02:24:52.688Z,6.83
2023-03-26T02:28:53.925Z,6.72
2023-03-26T02:32:55.234Z,6.76
2023-03-26T02:36:56.498Z,6.80
2023-03-26T02:40:57.714Z,6.72
2023-03-26T02:44:58.882Z,6.76
2023-03-26T02:49:00.197Z,6.75
2023-03-26T02:53:01.417Z,6.94
2023-03-26T02:57:02.717Z,6.95
2023-03-26T03:01:03.959Z,6.88
2023-03-26T03:05:05.219Z,6.72
2023-03-26T03:09:06.343Z,6.91
2023-03-26T03:13:07.586Z,6.39
2023-03-26T03:17:08.963Z,6.56
2023-03-26T03:21:10.005Z,6.77
2023-03-26T03:25:11.115Z,6.66
2023-03-26T03:29:12.159Z,6.65
2023-03-26T03:33:13.171Z,6.61
2023-03-26T03:37:14.214Z,6.40
2023-03-26T03:41:15.241Z,6.66
2023-03-26T03:45:16.286Z,6.85
2023-03-26T03:49:17.453Z,6.63
2023-03-26T03:53:18.592Z,6.70
2023-03-26T03:57:20.179Z,6.63
2023-03-26T04:01:20.840Z,6.75
2023-03-26T04:05:21.915Z,6.82
2023-03-26T04:09:23.174Z,6.94
2023-03-26T04:13:23.978Z,6.93
2023-03-26T04:17:25.043Z,6.85
2023-03-26T04:21:25.994Z,6.96
2023-03-26T04:25:27.030Z,6.91
2023-03-26T04:29:28.361Z,6.65
2023-03-26T04:33:29.709Z,6.81
2023-03-26T04:37:30.850Z,6.85
2023-03-26T04:41:32.041Z,6.62
2023-03-26T04:45:33.210Z,6.68
2023-03-26T04:49:34.347Z,6.81
2023-03-26T04:53:35.538Z,6.88
2023-03-26T04:57:36.846Z,6.71
2023-03-26T05:01:38.229Z,6.36
2023-03-26T05:05:39.238Z,6.20
2023-03-26T05:09:40.326Z,6.25
2023-03-26T05:13:41.382Z,6.62
2023-03-26T05:17:42.429Z,6.94
2023-03-26T05:21:43.287Z,7.04
2023-03-26T05:25:44.250Z,7.04
2023-03-26T05:29:45.253Z,6.98
2023-03-26T05:33:46.371Z,6.78
2023-03-26T05:37:47.362Z,6.89
2023-03-26T05:41:48.458Z,6.72
2023-03-26T05:45:49.639Z,6.61
2023-03-26T05:49:50.860Z,6.42
2023-03-26T05:53:51.974Z,6.57
2023-03-26T05:57:53.171Z,6.86
2023-03-26T06:01:54.368Z,7.10
2023-03-26T06:05:55.651Z,6.93
2023-03-26T06:09:57.182Z,6.91
2023-03-26T06:13:58.172Z,7.19
2023-03-26T06:17:59.272Z,7.21
2023-03-26T06:22:00.264Z,7.26
2023-03-26T06:26:01.478Z,7.41
2023-03-26T06:30:02.685Z,7.40
2023-03-26T06:34:03.797Z,7.04
2023-03-26T06:38:04.890Z,7.37
2023-03-26T06:42:05.833Z,7.37
2023-03-26T06:46:06.799Z,7.51
2023-03-26T06:50:07.709Z,7.49
2023-03-26T06:54:08.668Z,7.66
2023-03-26T06:58:09.570Z,7.71
2023-03-26T07:02:10.700Z,7.75
2023-03-26T07:06:11.358Z,8.07
2023-03-26T07:10:12.245Z,8.16
2023-03-26T07:14:13.178Z,8.35
2023-03-26T07:18:14.092Z,8.55
2023-03-26T07:22:14.951Z,8.55
2023-03-26T07:26:15.773Z,8.72
2023-03-26T07:30:16.587Z,8.76
2023-03-26T07:34:17.380Z,8.68
2023-03-26T07:38:18.503Z,9.22
2023-03-26T07:42:19.496Z,9.63
2023-03-26T07:46:20.330Z,10.02
2023-03-26T07:50:21.110Z,10.35
2023-03-26T07:54:21.870Z,10.39
2023-03-26T07:58:22.640Z,10.56
2023-03-26T08:02:23.422Z,10.73
2023-03-26T08:06:24.209Z,10.90
2023-03-26T08:10:24.926Z,10.99
2023-03-26T08:14:25.679Z,11.13
2023-03-26T08:18:26.467Z,11.29
2023-03-26T08:22:27.216Z,11.26
2023-03-26T08:26:27.969Z,11.21
2023-03-26T08:30:28.743Z,11.27
2023-03-26T08:34:29.508Z,11.14
2023-03-26T08:38:30.297Z,11.16
2023-03-26T10:18:50.765Z,12.20
2023-03-26T10:22:51.457Z,12.36
2023-03-26T10:27:08.958Z,12.46
2023-03-26T11:55:09.598Z,10.58
2023-03-26T11:59:10.314Z,10.88
2023-03-26T12:03:11.096Z,10.17
2023-03-26T12:07:11.822Z,10.07
2023-03-26T12:11:12.533Z,10.32
2023-03-26T12:15:13.256Z,10.51
2023-03-26T12:19:13.931Z,10.73
2023-03-26T12:23:14.770Z,10.60
2023-03-26T12:27:15.725Z,10.58
2023-03-26T12:31:16.506Z,10.63
2023-03-26T12:35:17.227Z,10.53
2023-03-26T12:40:07.726Z,10.35
2023-03-26T12:44:49.558Z,10.24
2023-03-26T12:47:58.716Z,10.48
2023-03-26T12:51:21.298Z,10.00
2023-03-26T12:55:21.090Z,10.26
2023-03-26T12:59:21.882Z,10.25
2023-03-26T13:03:22.794Z,10.22
2023-03-26T13:07:23.497Z,10.29
2023-03-26T13:11:24.296Z,10.25
2023-03-26T13:15:25.120Z,10.08
2023-03-26T13:19:25.933Z,10.16
2023-03-26T13:23:26.759Z,10.11
2023-03-26T13:27:27.617Z,9.97
2023-03-26T13:31:28.566Z,9.76
2023-03-26T13:35:29.478Z,9.62
2023-03-26T13:39:30.454Z,9.70
2023-03-26T13:43:31.407Z,9.61
2023-03-26T13:47:32.462Z,9.58
2023-03-26T13:51:33.470Z,9.78
2023-03-26T13:55:34.519Z,10.14
2023-03-26T13:59:36.307Z,9.99
2023-03-26T14:03:36.236Z,9.88
2023-03-26T14:07:37.027Z,10.17
2023-03-26T14:11:37.886Z,10.40
2023-03-26T14:15:38.584Z,10.45
2023-03-26T14:19:39.301Z,10.62
2023-03-26T14:23:40.299Z,10.50
2023-03-26T14:27:40.878Z,10.57
2023-03-26T14:31:41.902Z,10.48
2023-03-26T14:35:42.679Z,10.50
2023-03-26T14:39:43.455Z,10.37
2023-03-26T14:43:44.272Z,10.51
2023-03-26T14:47:45.190Z,10.34
2023-03-26T14:51:45.852Z,10.09
2023-03-26T14:55:46.648Z,9.41
2023-03-26T14:59:47.476Z,9.54
2023-03-26T15:03:48.310Z,9.26
2023-03-26T15:07:49.132Z,9.19
2023-03-26T15:11:49.950Z,9.24
2023-03-26T15:15:54.093Z,9.39
2023-03-26T15:19:51.609Z,9.12
2023-03-26T15:23:52.438Z,8.97
2023-03-26T15:27:53.285Z,8.83
2023-03-26T15:31:54.327Z,8.73
2023-03-26T15:35:57.428Z,8.86
2023-03-26T15:39:59.459Z,8.94
2023-03-26T15:44:22.604Z,9.06
2023-03-26T15:47:58.898Z,9.25
2023-03-26T15:51:58.789Z,9.13
2023-03-26T15:55:59.717Z,9.15
2023-03-26T16:00:01.044Z,9.37
2023-03-26T16:04:02.302Z,9.28
2023-03-26T16:08:02.651Z,9.52
2023-03-26T16:12:03.677Z,9.84
2023-03-26T16:16:04.754Z,9.77
2023-03-26T16:20:05.629Z,9.74
2023-03-26T16:24:06.423Z,9.69
2023-03-26T16:28:07.324Z,9.77
2023-03-26T16:32:08.267Z,9.50
2023-03-26T16:36:09.129Z,9.47
2023-03-26T16:40:09.980Z,9.30
2023-03-26T16:44:11.316Z,9.14
2023-03-26T16:48:11.670Z,9.21
2023-03-26T16:52:12.501Z,9.29
2023-03-26T16:56:13.366Z,8.83
2023-03-26T17:00:14.154Z,9.17
2023-03-26T17:04:14.965Z,9.11
2023-03-26T17:08:15.824Z,9.34
2023-03-26T17:12:16.560Z,9.31
2023-03-26T17:16:17.386Z,9.23
2023-03-26T17:20:18.235Z,9.31
2023-03-26T17:24:19.203Z,9.48
2023-03-26T17:28:20.286Z,9.54
2023-03-26T17:32:21.443Z,9.55
2023-03-26T17:36:22.350Z,9.52
2023-03-26T17:40:23.328Z,9.05
2023-03-26T17:44:24.201Z,9.31
2023-03-26T17:48:25.061Z,9.44
2023-03-26T17:52:25.942Z,9.53
2023-03-26T17:56:26.788Z,9.53
2023-03-26T18:00:27.748Z,9.36
2023-03-26T18:04:28.724Z,9.43
2023-03-26T18:08:29.706Z,8.83
2023-03-26T18:12:30.805Z,8.72
2023-03-26T18:16:31.940Z,8.91
2023-03-26T18:20:32.756Z,9.03
2023-03-26T18:24:33.704Z,8.79
2023-03-26T18:28:34.854Z,8.85
2023-03-26T18:32:35.657Z,8.91
2023-03-26T18:36:36.602Z,8.92
2023-03-26T18:40:37.534Z,8.75
2023-03-26T18:44:38.443Z,8.87
2023-03-26T18:48:39.393Z,8.90
2023-03-26T18:52:40.332Z,8.81
2023-03-26T18:56:41.263Z,8.85
2023-03-26T19:00:42.340Z,8.82
2023-03-26T19:04:45.428Z,8.79
2023-03-26T19:08:44.316Z,8.69
2023-03-26T19:12:45.149Z,8.55
2023-03-26T19:16:46.152Z,8.43
2023-03-26T19:20:47.013Z,8.33
2023-03-26T19:24:47.944Z,8.33
2023-03-26T19:28:48.840Z,8.42
2023-03-26T19:32:49.800Z,8.31
2023-03-26T19:36:50.664Z,8.37
2023-03-26T19:40:51.523Z,8.60
2023-03-26T19:44:52.412Z,8.46
2023-03-26T19:48:53.380Z,8.50
2023-03-26T19:52:58.548Z,8.55
2023-03-26T19:56:56.223Z,8.61
2023-03-26T20:00:56.417Z,8.58
2023-03-26T20:04:57.003Z,8.63
2023-03-26T20:08:57.929Z,8.66
2023-03-26T20:12:58.853Z,8.68
2023-03-26T20:16:59.871Z,8.75
2023-03-26T20:21:00.753Z,8.78
2023-03-26T20:25:01.746Z,8.73
2023-03-26T20:29:04.016Z,8.73
2023-03-26T20:33:12.648Z,8.79
2023-03-26T20:37:05.551Z,8.80
2023-03-26T20:41:05.392Z,8.74
2023-03-26T20:45:06.284Z,8.72
2023-03-26T20:49:07.227Z,8.55
2023-03-26T20:53:08.324Z,8.49
2023-03-26T20:57:09.386Z,8.42
2023-03-26T21:01:10.371Z,7.94
2023-03-26T21:05:11.875Z,8.07
2023-03-26T21:09:12.429Z,7.88
2023-03-26T21:13:13.370Z,8.14
2023-03-26T21:17:14.381Z,8.07
2023-03-26T21:21:21.203Z,8.23
2023-03-26T21:25:17.406Z,8.42
2023-03-26T21:29:17.236Z,8.50
2023-03-26T21:33:18.093Z,8.60
2023-03-26T21:37:18.998Z,8.61
2023-03-26T21:41:19.946Z,8.58
2023-03-26T21:45:20.909Z,8.47
2023-03-26T21:49:21.914Z,8.35
2023-03-26T21:53:22.905Z,8.41
2023-03-26T21:57:23.900Z,8.25
2023-03-26T22:01:24.938Z,8.33
2023-03-26T22:05:25.922Z,8.27
2023-03-26T22:09:35.712Z,8.19
2023-03-26T22:13:28.700Z,8.18
2023-03-26T22:17:28.903Z,8.16
2023-03-26T22:21:29.502Z,7.99
2023-03-26T22:25:30.576Z,7.78
2023-03-26T22:29:31.531Z,7.75
2023-03-26T22:33:32.470Z,7.97
2023-03-26T22:37:33.365Z,7.97
2023-03-26T22:41:34.889Z,7.95
2023-03-26T22:45:35.151Z,8.15
2023-03-26T22:49:36.027Z,8.17
2023-03-26T22:53:36.903Z,8.22
2023-03-26T22:57:37.766Z,8.17
2023-03-26T23:01:38.723Z,8.11
2023-03-26T23:05:39.543Z,8.14
2023-03-26T23:09:40.429Z,8.18
2023-03-26T23:13:41.296Z,8.13
2023-03-26T23:17:42.217Z,8.23
2023-03-26T23:21:43.084Z,8.10
2023-03-26T23:25:43.971Z,8.16
2023-03-26T23:29:44.863Z,8.27
2023-03-26T23:33:45.941Z,8.27
2023-03-26T23:37:46.661Z,8.09
2023-03-26T23:41:47.575Z,8.02
2023-03-26T23:45:48.491Z,8.02
2023-03-26T23:49:49.412Z,7.80
2023-03-26T23:53:50.507Z,7.77
2023-03-26T23:57:51.682Z,7.58
